createdAt,value
2022-12-14T00:02:44.891Z,99577.19
2022-12-14T00:05:48.829Z,99587.16
2022-12-14T00:08:55.327Z,99587.03
2022-12-14T00:12:00.569Z,99598.03
2022-12-14T00:15:04.664Z,99594.75
2022-12-14T00:18:08.930Z,99590.13
2022-12-14T00:21:14.889Z,99588.78
2022-12-14T00:24:19.017Z,99595.28
2022-12-14T00:27:24.233Z,99603.19
2022-12-14T00:30:28.744Z,99596.94
2022-12-14T00:33:32.917Z,99586.69
2022-12-14T00:36:38.255Z,99590.97
2022-12-14T00:39:42.070Z,99593.50
2022-12-14T00:42:47.639Z,99574.50
2022-12-14T00:45:52.015Z,99570.38
2022-12-14T00:48:56.649Z,99574.91
2022-12-14T00:52:00.516Z,99580.75
2022-12-14T00:55:04.482Z,99584.88
2022-12-14T00:58:11.533Z,99585.88
2022-12-14T01:01:15.502Z,99582.78
2022-12-14T01:04:21.688Z,99589.41
2022-12-14T01:07:25.875Z,99587.56
2022-12-14T01:10:30.116Z,99578.72
2022-12-14T01:13:36.192Z,99579.88
2022-12-14T01:16:40.069Z,99578.03
2022-12-14T01:19:43.916Z,99578.25
2022-12-14T01:22:56.066Z,99587.22
2022-12-14T01:26:01.297Z,99585.69
2022-12-14T01:29:07.575Z,99583.91
2022-12-14T01:32:11.550Z,99579.34
2022-12-14T01:35:15.664Z,99582.16
2022-12-14T01:38:19.370Z,99576.78
2022-12-14T01:41:27.362Z,99592.69
2022-12-14T01:44:58.557Z,99594.16
2022-12-14T01:48:05.117Z,99595.09
2022-12-14T01:51:08.976Z,99600.03
2022-12-14T01:54:15.718Z,99601.28
2022-12-14T01:57:24.396Z,99601.31
2022-12-14T02:00:30.540Z,99609.03
2022-12-14T02:03:37.009Z,99599.94
2022-12-14T02:06:44.269Z,99600.13
2022-12-14T02:09:49.590Z,99601.69
2022-12-14T02:13:00.771Z,99599.03
2022-12-14T02:16:06.687Z,99591.16
2022-12-14T02:19:10.597Z,99596.22
2022-12-14T02:22:45.516Z,99599.31
2022-12-14T02:26:37.939Z,99612.34
2022-12-14T02:29:55.936Z,99610.47
2022-12-14T02:33:14.548Z,99599.63
2022-12-14T02:36:27.196Z,99605.53
2022-12-14T02:39:42.833Z,99607.56
2022-12-14T02:42:56.296Z,99593.53
2022-12-14T02:46:08.496Z,99601.81
2022-12-14T02:49:16.496Z,99594.78
2022-12-14T02:52:30.157Z,99599.31
2022-12-14T02:55:38.576Z,99597.03
2022-12-14T02:58:46.876Z,99601.91
2022-12-14T03:01:54.032Z,99601.31
2022-12-14T03:04:58.069Z,99597.56
2022-12-14T03:08:04.909Z,99600.38
2022-12-14T03:11:09.190Z,99593.09
2022-12-14T03:14:20.421Z,99591.47
2022-12-14T03:17:29.517Z,99585.56
2022-12-14T03:20:37.157Z,99593.44
2022-12-14T03:23:44.567Z,99590.13
2022-12-14T03:26:55.056Z,99586.69
2022-12-14T03:30:02.899Z,99592.22
2022-12-14T03:33:14.628Z,99595.97
2022-12-14T03:36:23.514Z,99588.53
2022-12-14T03:39:32.081Z,99597.81
2022-12-14T03:42:43.225Z,99610.41
2022-12-14T03:46:00.922Z,99602.06
2022-12-14T03:49:14.586Z,99609.25
2022-12-14T03:52:26.698Z,99608.47
2022-12-14T03:55:38.370Z,99592.22
2022-12-14T03:58:56.804Z,99599.47
2022-12-14T04:02:05.463Z,99598.34
2022-12-14T04:05:18.444Z,99598.44
2022-12-14T04:08:28.592Z,99595.56
2022-12-14T04:11:55.356Z,99584.91
2022-12-14T04:15:28.409Z,99584.31
2022-12-14T04:18:59.531Z,99587.66
2022-12-14T04:22:10.589Z,99582.88
2022-12-14T04:25:36.191Z,99590.00
2022-12-14T04:29:04.238Z,99589.88
2022-12-14T04:32:13.115Z,99595.88
2022-12-14T04:35:22.377Z,99585.03
2022-12-14T04:38:34.715Z,99587.50
2022-12-14T04:41:43.406Z,99579.03
2022-12-14T04:44:52.020Z,99571.81
2022-12-14T04:48:01.990Z,99576.50
2022-12-14T04:51:12.316Z,99583.16
2022-12-14T04:54:25.150Z,99589.09
2022-12-14T04:57:35.556Z,99599.81
2022-12-14T05:00:54.282Z,99594.13
2022-12-14T05:04:12.483Z,99595.06
2022-12-14T05:07:24.696Z,99605.00
2022-12-14T05:10:37.917Z,99611.19
2022-12-14T05:13:48.850Z,99609.56
2022-12-14T05:16:53.141Z,99603.06
2022-12-14T05:19:57.456Z,99607.59
2022-12-14T05:23:02.391Z,99606.56
2022-12-14T05:26:07.650Z,99603.94
2022-12-14T05:29:11.583Z,99611.59
2022-12-14T05:32:15.396Z,99602.94
2022-12-14T05:35:19.357Z,99605.72
2022-12-14T05:38:23.172Z,99603.75
2022-12-14T05:41:28.417Z,99606.75
2022-12-14T05:44:32.452Z,99622.16
2022-12-14T05:47:36.389Z,99623.91
2022-12-14T05:50:40.195Z,99623.94
2022-12-14T05:53:44.253Z,99635.81
2022-12-14T05:56:49.449Z,99639.81
2022-12-14T05:59:53.257Z,99644.59
2022-12-14T06:02:57.182Z,99643.03
2022-12-14T06:06:04.395Z,99625.34
2022-12-14T06:09:09.189Z,99634.44
2022-12-14T06:12:14.549Z,99632.69
2022-12-14T06:15:18.617Z,99641.88
2022-12-14T06:18:24.511Z,99638.88
2022-12-14T06:21:30.874Z,99651.72
2022-12-14T06:24:34.756Z,99649.75
2022-12-14T06:27:39.918Z,99646.66
2022-12-14T06:30:43.996Z,99638.59
2022-12-14T06:33:49.609Z,99641.19
2022-12-14T06:36:53.456Z,99657.28
2022-12-14T06:39:57.317Z,99654.09
2022-12-14T06:43:02.658Z,99658.44
2022-12-14T06:46:14.787Z,99669.91
2022-12-14T06:49:19.477Z,99670.63
2022-12-14T06:52:26.656Z,99671.94
2022-12-14T06:55:31.075Z,99671.94
2022-12-14T06:58:36.450Z,99679.78
2022-12-14T07:01:41.256Z,99687.44
2022-12-14T07:04:45.250Z,99685.75
2022-12-14T07:07:49.396Z,99677.44
2022-12-14T07:10:57.517Z,99683.88
2022-12-14T07:14:07.499Z,99685.88
2022-12-14T07:17:11.213Z,99685.84
2022-12-14T07:20:15.718Z,99680.53
2022-12-14T07:23:23.399Z,99669.72
2022-12-14T07:26:30.869Z,99664.38
2022-12-14T07:29:36.536Z,99673.59
2022-12-14T07:32:40.437Z,99663.69
2022-12-14T07:35:44.257Z,99657.81
2022-12-14T07:38:49.821Z,99668.00
2022-12-14T07:41:54.849Z,99671.13
2022-12-14T07:45:01.458Z,99660.25
2022-12-14T07:48:07.752Z,99656.00
2022-12-14T07:51:13.675Z,99663.19
2022-12-14T07:54:17.616Z,99672.47
2022-12-14T07:57:21.418Z,99672.03
2022-12-14T08:00:26.912Z,99687.06
2022-12-14T08:03:31.006Z,99690.28
2022-12-14T08:06:36.132Z,99682.88
2022-12-14T08:09:40.035Z,99703.16
2022-12-14T08:12:43.832Z,99706.25
2022-12-14T08:15:49.015Z,99701.00
2022-12-14T08:18:55.030Z,99698.06
2022-12-14T08:21:58.828Z,99688.78
2022-12-14T08:25:02.688Z,99691.31
2022-12-14T08:28:06.959Z,99698.66
2022-12-14T08:31:14.919Z,99706.63
2022-12-14T08:34:23.088Z,99699.59
2022-12-14T08:37:26.996Z,99690.44
2022-12-14T08:40:31.090Z,99698.00
2022-12-14T08:43:35.176Z,99703.91
2022-12-14T08:46:40.630Z,99696.34
2022-12-14T08:49:44.497Z,99702.91
2022-12-14T08:52:49.030Z,99706.44
2022-12-14T08:55:53.111Z,99704.19
2022-12-14T08:58:58.056Z,99702.72
2022-12-14T09:02:03.603Z,99697.44
2022-12-14T09:05:08.250Z,99691.19
2022-12-14T09:08:12.156Z,99684.00
2022-12-14T09:11:17.569Z,99679.22
2022-12-14T09:14:21.652Z,99685.09
2022-12-14T09:17:27.017Z,99685.91
2022-12-14T09:20:30.869Z,99682.38
2022-12-14T09:23:35.788Z,99668.22
2022-12-14T09:26:39.530Z,99661.22
2022-12-14T09:29:43.377Z,99646.53
2022-12-14T09:32:50.610Z,99626.78
2022-12-14T09:35:54.859Z,99617.88
2022-12-14T09:38:59.777Z,99629.53
2022-12-14T09:42:15.409Z,99628.97
2022-12-14T09:45:24.516Z,99621.97
2022-12-14T09:48:30.090Z,99624.72
2022-12-14T09:51:37.404Z,99631.00
2022-12-14T09:54:41.896Z,99624.81
2022-12-14T09:57:47.010Z,99616.53
2022-12-14T10:00:57.651Z,99622.69
2022-12-14T10:04:12.958Z,99612.81
2022-12-14T10:07:22.623Z,99598.75
2022-12-14T10:10:30.573Z,99607.41
2022-12-14T10:13:46.677Z,99603.88
2022-12-14T10:16:56.555Z,99602.91
2022-12-14T10:20:06.595Z,99622.84
2022-12-14T10:23:21.029Z,99628.31
2022-12-14T10:26:33.791Z,99617.06
2022-12-14T10:29:43.609Z,99608.97
2022-12-14T10:32:52.606Z,99615.38
2022-12-14T10:36:06.709Z,99609.75
2022-12-14T10:39:24.129Z,99612.56
2022-12-14T10:42:38.778Z,99604.63
2022-12-14T10:45:47.285Z,99587.25
2022-12-14T10:48:58.436Z,99572.56
2022-12-14T10:52:07.469Z,99557.63
2022-12-14T10:55:16.889Z,99556.63
2022-12-14T10:58:20.657Z,99549.16
2022-12-14T11:01:24.619Z,99549.97
2022-12-14T11:04:35.131Z,99549.44
2022-12-14T11:07:43.636Z,99553.38
2022-12-14T11:10:47.549Z,99552.31
2022-12-14T11:13:53.755Z,99537.28
2022-12-14T11:16:57.865Z,99527.06
2022-12-14T11:20:18.549Z,99508.28
2022-12-14T11:23:28.337Z,99511.59
2022-12-14T11:26:37.315Z,99511.03
2022-12-14T11:29:45.956Z,99508.09
2022-12-14T11:32:50.415Z,99517.56
2022-12-14T11:35:54.777Z,99513.94
2022-12-14T11:39:01.954Z,99514.16
2022-12-14T11:42:07.040Z,99504.94
2022-12-14T11:45:29.856Z,99499.00
2022-12-14T11:48:37.071Z,99505.72
2022-12-14T11:51:56.084Z,99502.56
2022-12-14T11:55:13.878Z,99503.38
2022-12-14T11:58:20.836Z,99498.28
2022-12-14T12:01:27.422Z,99492.59
2022-12-14T12:04:32.017Z,99491.88
2022-12-14T12:07:38.816Z,99495.69
2022-12-14T12:10:49.937Z,99492.97
2022-12-14T12:14:00.578Z,99490.63
2022-12-14T12:17:18.416Z,99478.69
2022-12-14T12:20:31.537Z,99469.66
2022-12-14T12:23:43.096Z,99472.41
2022-12-14T12:26:52.444Z,99475.25
2022-12-14T12:30:03.936Z,99468.44
2022-12-14T12:33:21.716Z,99462.16
2022-12-14T12:36:26.236Z,99460.28
2022-12-14T12:39:31.889Z,99461.13
2022-12-14T12:42:47.417Z,99462.03
2022-12-14T12:45:55.973Z,99463.59
2022-12-14T12:49:06.616Z,99467.13
2022-12-14T12:52:20.890Z,99480.38
2022-12-14T12:55:27.154Z,99487.69
2022-12-14T12:58:34.870Z,99491.13
2022-12-14T13:01:42.479Z,99495.91
2022-12-14T13:04:52.716Z,99495.25
2022-12-14T13:08:01.120Z,99485.22
2022-12-14T13:11:28.338Z,99480.88
2022-12-14T13:14:39.795Z,99477.03
2022-12-14T13:17:49.449Z,99470.06
2022-12-14T13:20:53.856Z,99475.97
2022-12-14T13:23:58.420Z,99467.72
2022-12-14T13:27:31.077Z,99471.97
2022-12-14T13:30:49.712Z,99476.78
2022-12-14T13:34:20.607Z,99478.16
2022-12-14T13:37:46.366Z,99471.31
2022-12-14T13:41:20.515Z,99476.53
2022-12-14T13:44:46.313Z,99480.97
2022-12-14T13:47:55.665Z,99479.22
2022-12-14T13:51:03.467Z,99481.97
2022-12-14T13:54:19.747Z,99476.47
2022-12-14T13:57:26.813Z,99473.59
2022-12-14T14:01:01.726Z,99465.50
2022-12-14T14:07:52.062Z,99465.47
2022-12-14T14:11:13.916Z,99457.84
2022-12-14T14:14:30.996Z,99459.47
2022-12-14T14:17:39.902Z,99483.97
2022-12-14T14:20:46.758Z,99480.44
2022-12-14T14:23:59.272Z,99475.72
2022-12-14T14:27:12.493Z,99468.34
2022-12-14T14:30:28.086Z,99472.41
2022-12-14T14:33:46.591Z,99477.22
2022-12-14T14:36:52.571Z,99470.59
2022-12-14T14:40:18.339Z,99466.88
2022-12-14T14:43:30.703Z,99460.78
2022-12-14T14:46:39.316Z,99445.97
2022-12-14T14:49:46.369Z,99434.50
2022-12-14T14:53:02.392Z,99422.69
2022-12-14T14:56:14.653Z,99398.75
2022-12-14T14:59:50.990Z,99381.06
2022-12-14T15:02:56.101Z,99381.03
2022-12-14T15:06:00.993Z,99384.38
2022-12-14T15:09:08.813Z,99410.34
2022-12-14T15:12:31.202Z,99420.56
2022-12-14T15:15:38.889Z,99409.28
2022-12-14T15:18:42.653Z,99379.16
2022-12-14T15:21:47.645Z,99397.03
2022-12-14T15:24:53.965Z,99402.84
2022-12-14T15:28:05.698Z,99406.38
2022-12-14T15:31:09.623Z,99401.75
2022-12-14T15:34:17.975Z,99427.59
2022-12-14T15:37:28.331Z,99425.38
2022-12-14T15:40:32.926Z,99418.63
2022-12-14T15:43:45.192Z,99429.06
2022-12-14T15:46:56.515Z,99412.00
2022-12-14T15:50:19.352Z,99408.97
2022-12-14T15:53:32.124Z,99403.13
2022-12-14T15:56:39.711Z,99397.81
2022-12-14T15:59:47.486Z,99410.97
2022-12-14T16:02:53.817Z,99419.09
2022-12-14T16:05:59.160Z,99421.13
2022-12-14T16:09:07.197Z,99424.28
2022-12-14T16:12:18.535Z,99425.25
2022-12-14T16:15:25.978Z,99412.47
2022-12-14T16:18:29.785Z,99414.03
2022-12-14T16:21:35.875Z,99397.00
2022-12-14T16:24:40.116Z,99391.66
2022-12-14T16:27:46.163Z,99393.00
2022-12-14T16:30:59.546Z,99397.25
2022-12-14T16:34:09.892Z,99391.06
2022-12-14T16:37:34.583Z,99393.03
2022-12-14T16:40:41.125Z,99407.84
2022-12-14T16:43:57.356Z,99398.16
2022-12-14T16:47:26.165Z,99407.09
2022-12-14T16:53:54.876Z,99410.63
2022-12-14T16:57:04.471Z,99413.91
2022-12-14T17:00:20.481Z,99412.75
2022-12-14T17:03:26.052Z,99417.72
2022-12-14T17:06:38.186Z,99425.13
2022-12-14T17:09:41.977Z,99414.47
2022-12-14T17:12:46.092Z,99408.53
2022-12-14T17:15:58.754Z,99406.94
2022-12-14T17:19:05.145Z,99396.84
2022-12-14T17:22:17.762Z,99381.69
2022-12-14T17:25:22.436Z,99375.09
2022-12-14T17:28:29.255Z,99373.69
2022-12-14T17:31:32.942Z,99357.88
2022-12-14T17:34:38.165Z,99359.94
2022-12-14T17:37:41.915Z,99363.22
2022-12-14T17:40:47.167Z,99359.44
2022-12-14T17:43:56.666Z,99349.69
2022-12-14T17:47:01.032Z,99345.72
2022-12-14T17:50:07.187Z,99350.38
2022-12-14T17:53:14.804Z,99367.09
2022-12-14T17:56:18.579Z,99354.34
2022-12-14T17:59:22.244Z,99359.81
2022-12-14T18:02:29.017Z,99361.78
2022-12-14T18:05:34.947Z,99359.31
2022-12-14T18:08:38.616Z,99376.06
2022-12-14T18:12:13.958Z,99400.16
2022-12-14T18:15:11.946Z,99400.81
2022-12-14T18:18:16.086Z,99401.25
2022-12-14T18:21:24.103Z,99396.78
2022-12-14T18:24:27.932Z,99392.63
2022-12-14T18:27:31.750Z,99399.34
2022-12-14T18:30:43.093Z,99374.81
2022-12-14T18:33:49.812Z,99364.69
2022-12-14T18:36:55.102Z,99369.09
2022-12-14T18:39:58.885Z,99363.06
2022-12-14T18:43:02.626Z,99362.53
2022-12-14T18:46:06.684Z,99369.47
2022-12-14T18:49:10.498Z,99370.50
2022-12-14T18:52:16.147Z,99384.09
2022-12-14T18:55:22.403Z,99375.13
2022-12-14T18:58:28.254Z,99373.03
2022-12-14T19:01:32.152Z,99365.69
2022-12-14T19:04:35.970Z,99367.34
2022-12-14T19:07:41.174Z,99374.19
2022-12-14T19:10:48.060Z,99368.16
2022-12-14T19:13:51.946Z,99354.00
2022-12-14T19:16:55.656Z,99350.75
2022-12-14T19:19:59.356Z,99341.41
2022-12-14T19:23:04.567Z,99332.56
2022-12-14T19:26:08.372Z,99320.47
2022-12-14T19:29:12.116Z,99307.75
2022-12-14T19:32:15.796Z,99312.47
2022-12-14T19:35:20.306Z,99311.03
2022-12-14T19:38:25.585Z,99306.59
2022-12-14T19:41:29.324Z,99303.28
2022-12-14T19:44:35.082Z,99301.00
2022-12-14T19:47:38.956Z,99287.19
2022-12-14T19:50:42.751Z,99289.72
2022-12-14T19:53:56.211Z,99291.22
2022-12-14T19:56:59.892Z,99279.09
2022-12-14T20:00:03.992Z,99280.72
2022-12-14T20:03:13.471Z,99267.38
2022-12-14T20:06:17.304Z,99255.22
2022-12-14T20:09:22.542Z,99253.28
2022-12-14T20:12:26.397Z,99242.63
2022-12-14T20:15:30.187Z,99232.66
2022-12-14T20:18:34.054Z,99216.81
2022-12-14T20:21:37.823Z,99204.22
2022-12-14T20:24:43.286Z,99204.69
2022-12-14T20:27:46.987Z,99198.97
2022-12-14T20:30:51.043Z,99201.53
2022-12-14T20:33:55.193Z,99190.78
2022-12-14T20:36:59.046Z,99196.91
2022-12-14T20:40:04.422Z,99205.66
2022-12-14T20:43:08.472Z,99202.81
2022-12-14T20:46:26.528Z,99196.94
2022-12-14T20:49:33.043Z,99192.81
2022-12-14T20:52:36.769Z,99193.31
2022-12-14T20:55:41.886Z,99183.53
2022-12-14T20:58:49.526Z,99182.19
2022-12-14T21:01:56.145Z,99191.41
2022-12-14T21:05:00.622Z,99207.38
2022-12-14T21:08:04.387Z,99201.72
2022-12-14T21:11:23.389Z,99198.63
2022-12-14T21:14:29.699Z,99192.63
2022-12-14T21:17:33.933Z,99176.13
2022-12-14T21:20:38.352Z,99163.94
2022-12-14T21:23:42.684Z,99165.44
2022-12-14T21:26:47.861Z,99149.50
2022-12-14T21:29:54.077Z,99151.53
2022-12-14T21:32:58.870Z,99147.72
2022-12-14T21:36:07.718Z,99140.41
2022-12-14T21:39:13.311Z,99131.50
2022-12-14T21:42:20.740Z,99120.50
2022-12-14T21:45:24.473Z,99105.19
2022-12-14T21:48:28.312Z,99111.47
2022-12-14T21:51:32.065Z,99099.97
2022-12-14T21:54:36.052Z,99107.91
2022-12-14T21:57:58.703Z,99098.84
2022-12-14T22:01:08.377Z,99075.50
2022-12-14T22:04:12.332Z,99064.56
2022-12-14T22:07:17.286Z,99060.94
2022-12-14T22:10:24.893Z,99055.63
2022-12-14T22:13:30.924Z,99049.88
2022-12-14T22:16:36.189Z,99056.63
2022-12-14T22:19:39.945Z,99047.91
2022-12-14T22:22:43.602Z,99046.16
2022-12-14T22:25:51.245Z,99053.69
2022-12-14T22:28:56.465Z,99048.31
2022-12-14T22:32:00.256Z,99036.28
2022-12-14T22:35:04.120Z,99007.75
2022-12-14T22:38:07.893Z,99011.94
2022-12-14T22:41:14.313Z,99007.97
2022-12-14T22:44:19.536Z,99001.78
2022-12-14T22:47:23.244Z,98998.16
2022-12-14T22:50:26.856Z,98992.66
2022-12-14T22:53:31.779Z,98975.25
2022-12-14T22:56:40.555Z,98975.91
2022-12-14T22:59:51.355Z,98984.97
2022-12-14T23:02:56.246Z,98974.06
2022-12-14T23:06:02.226Z,98979.09
2022-12-14T23:09:24.190Z,98981.28
2022-12-14T23:12:44.957Z,98975.13
2022-12-14T23:16:07.551Z,98959.72
2022-12-14T23:19:28.383Z,98982.75
2022-12-14T23:22:49.605Z,98962.56
2022-12-14T23:26:11.225Z,98968.06
2022-12-14T23:29:32.249Z,98950.84
2022-12-14T23:32:55.101Z,98925.75
2022-12-14T23:36:19.773Z,98946.78
2022-12-14T23:39:40.977Z,98942.41
2022-12-14T23:43:02.033Z,98942.13
2022-12-14T23:46:24.021Z,98954.72
2022-12-14T23:49:46.948Z,98947.47
2022-12-14T23:53:07.606Z,98948.59
2022-12-14T23:56:28.555Z,98942.41
2022-12-14T23:59:49.930Z,98932.28
